Time;durP1;ratioP1;P1;durP2;ratioP2;P2;SDS_P1;SDS_P2;PMS_P1;PMS_P2;Temp;Humidity;BMP_temperature;BMP_pressure;BME280_temperature;BME280_humidity;BME280_pressure;Samples;Min_cycle;Max_cycle;Signal;HPM_P1;HPM_P2
2022/10/03 00:00:31;;;;;;;0.20;0.20;;;11.90;99.90;;;;;;5050218;28;20052;-80
2022/10/03 00:03:15;;;;;;;0.20;0.20;;;11.90;99.90;;;;;;5048971;28;20048;-80
2022/10/03 00:06:01;;;;;;;0.10;0.10;;;11.90;99.90;;;;;;5070922;28;20080;-80
2022/10/03 00:08:42;;;;;;;0.15;0.15;;;11.90;99.90;;;;;;5069584;28;20127;-79
2022/10/03 00:11:38;;;;;;;0.15;0.15;;;11.90;99.90;;;;;;5053840;28;20447;-80
2022/10/03 00:14:20;;;;;;;0.20;0.20;;;11.90;99.90;;;;;;5050078;28;20052;-79
2022/10/03 00:17:06;;;;;;;0.10;0.10;;;11.90;99.90;;;;;;5068872;28;20079;-80
2022/10/03 00:19:55;;;;;;;0.20;0.20;;;11.90;99.90;;;;;;5045959;28;20788;-79
2022/10/03 00:22:27;;;;;;;0.10;0.10;;;11.90;99.90;;;;;;5069552;28;20044;-80
2022/10/03 00:24:58;;;;;;;0.17;0.17;;;12.00;99.90;;;;;;5060140;28;20326;-80
2022/10/03 00:27:59;;;;;;;0.20;0.20;;;12.00;99.90;;;;;;5048471;28;20081;-80
2022/10/03 00:30:28;;;;;;;0.10;0.10;;;12.00;99.90;;;;;;5053560;28;20139;-80
2022/10/03 00:33:07;;;;;;;0.10;0.10;;;12.10;99.90;;;;;;5051673;28;20070;-80
2022/10/03 00:35:41;;;;;;;0.10;0.10;;;12.10;99.90;;;;;;5050222;28;20080;-80
2022/10/03 00:38:26;;;;;;;0.20;0.20;;;12.20;99.90;;;;;;5064586;28;20044;-80
2022/10/03 00:41:10;;;;;;;0.10;0.10;;;12.10;99.90;;;;;;5050236;28;20045;-80
2022/10/03 00:43:57;;;;;;;0.20;0.20;;;12.10;99.90;;;;;;5063950;28;20050;-79
2022/10/03 00:46:38;;;;;;;0.15;0.15;;;12.10;99.90;;;;;;5050101;28;20045;-80
2022/10/03 00:49:28;;;;;;;0.20;0.20;;;12.10;99.90;;;;;;5049618;28;20044;-81
2022/10/03 00:52:08;;;;;;;0.13;0.13;;;12.10;99.90;;;;;;5050652;28;20159;-80
2022/10/03 00:54:52;;;;;;;0.13;0.13;;;12.20;99.90;;;;;;5066862;28;20079;-80
2022/10/03 00:57:41;;;;;;;0.20;0.20;;;12.20;99.90;;;;;;5069042;28;20037;-81
2022/10/03 01:00:16;;;;;;;0.20;0.20;;;12.20;99.90;;;;;;5064615;28;20508;-80
2022/10/03 01:03:12;;;;;;;0.10;0.10;;;12.20;99.90;;;;;;5064037;28;20098;-81
2022/10/03 01:06:04;;;;;;;0.20;0.20;;;12.20;99.90;;;;;;5052076;28;20388;-81
2022/10/03 01:08:36;;;;;;;0.20;0.20;;;12.20;99.90;;;;;;5052211;28;20059;-80
2022/10/03 01:11:23;;;;;;;0.10;0.10;;;12.20;99.90;;;;;;5069484;28;20048;-80
2022/10/03 01:14:05;;;;;;;0.20;0.20;;;12.20;99.90;;;;;;5059935;28;20024;-80
2022/10/03 01:16:55;;;;;;;0.20;0.20;;;12.30;99.90;;;;;;5091196;28;20055;-80
2022/10/03 01:19:59;;;;;;;0.17;0.17;;;12.20;99.90;;;;;;5054943;28;20053;-80
2022/10/03 01:22:27;;;;;;;0.20;0.20;;;12.20;99.90;;;;;;5049166;28;20056;-80
2022/10/03 01:25:01;;;;;;;0.10;0.10;;;12.20;99.90;;;;;;5044742;28;20139;-80
2022/10/03 01:30:56;;;;;;;0.17;0.17;;;12.20;99.90;;;;;;5044967;28;20073;-80
2022/10/03 01:33:32;;;;;;;0.20;0.20;;;12.20;99.90;;;;;;5065298;28;20037;-80
2022/10/03 01:36:06;;;;;;;0.20;0.20;;;12.20;99.90;;;;;;5052410;28;20058;-79
2022/10/03 01:38:48;;;;;;;0.10;0.10;;;12.20;99.90;;;;;;5048609;28;20094;-80
2022/10/03 01:41:27;;;;;;;0.20;0.20;;;12.20;99.90;;;;;;5041204;28;20068;-80
2022/10/03 01:44:23;;;;;;;0.20;0.20;;;12.20;99.90;;;;;;5066454;28;20071;-80
2022/10/03 01:47:27;;;;;;;0.20;0.20;;;12.20;99.90;;;;;;5048138;28;20049;-80
2022/10/03 01:50:04;;;;;;;0.20;0.20;;;12.20;99.90;;;;;;5021486;28;20124;-80
2022/10/03 01:52:59;;;;;;;0.10;0.10;;;12.20;99.90;;;;;;5031400;28;20052;-80
2022/10/03 01:55:37;;;;;;;0.20;0.20;;;12.10;99.90;;;;;;5012786;28;20093;-80
2022/10/03 01:58:26;;;;;;;0.10;0.10;;;12.10;99.90;;;;;;5050481;28;20086;-80
2022/10/03 02:01:10;;;;;;;0.10;0.10;;;12.10;99.90;;;;;;5047261;28;20059;-80
2022/10/03 02:03:55;;;;;;;0.20;0.20;;;12.10;99.90;;;;;;5042800;28;20106;-80
2022/10/03 02:07:11;;;;;;;0.20;0.20;;;12.20;99.90;;;;;;5047069;28;20062;-80
2022/10/03 02:09:47;;;;;;;0.20;0.20;;;12.20;99.90;;;;;;4952475;28;20230;-80
2022/10/03 02:12:18;;;;;;;0.10;0.10;;;12.20;99.90;;;;;;5040003;28;20053;-79
2022/10/03 02:15:19;;;;;;;0.10;0.10;;;12.20;99.90;;;;;;5049871;28;20614;-79
2022/10/03 02:18:17;;;;;;;0.20;0.20;;;12.20;99.90;;;;;;5047687;28;20478;-79
2022/10/03 02:20:48;;;;;;;0.20;0.20;;;12.20;99.90;;;;;;5034357;28;20082;-80
2022/10/03 02:23:32;;;;;;;0.20;0.20;;;12.20;99.90;;;;;;5050744;28;20052;-80
2022/10/03 02:26:24;;;;;;;0.20;0.20;;;12.20;99.90;;;;;;5061355;28;20568;-80
2022/10/03 02:29:22;;;;;;;0.20;0.20;;;12.20;99.90;;;;;;5046869;28;20124;-80
2022/10/03 02:32:15;;;;;;;0.20;0.20;;;12.20;99.90;;;;;;5048703;28;20052;-80
2022/10/03 02:35:13;;;;;;;0.20;0.20;;;12.20;99.90;;;;;;5029588;28;20045;-80
2022/10/03 02:37:48;;;;;;;0.10;0.10;;;12.20;99.90;;;;;;5014690;28;20682;-80
2022/10/03 02:40:46;;;;;;;0.10;0.10;;;12.20;99.90;;;;;;5060357;28;20150;-81
2022/10/03 02:43:31;;;;;;;0.10;0.10;;;12.30;99.90;;;;;;5031675;28;20053;-80
2022/10/03 02:46:09;;;;;;;0.17;0.17;;;12.30;99.90;;;;;;5049787;28;20049;-80
2022/10/03 02:48:46;;;;;;;0.13;0.13;;;12.30;99.90;;;;;;5031669;28;20049;-80
2022/10/03 02:51:35;;;;;;;0.20;0.20;;;12.30;99.90;;;;;;5049126;28;20489;-80
2022/10/03 02:54:25;;;;;;;0.20;0.20;;;12.30;99.90;;;;;;5050021;28;20147;-80
2022/10/03 02:57:23;;;;;;;0.20;0.20;;;12.40;99.90;;;;;;5059850;28;20040;-80
2022/10/03 03:00:20;;;;;;;0.20;0.20;;;12.30;99.90;;;;;;5050698;28;20064;-80
2022/10/03 03:03:20;;;;;;;0.20;0.20;;;12.40;99.90;;;;;;5049288;28;20091;-80
2022/10/03 03:06:16;;;;;;;0.20;0.20;;;12.40;99.90;;;;;;5028525;28;20136;-80
2022/10/03 03:08:57;;;;;;;0.10;0.10;;;12.40;99.90;;;;;;5042482;28;20053;-80
2022/10/03 03:12:05;;;;;;;0.15;0.15;;;12.40;99.90;;;;;;5046765;28;20059;-80
2022/10/03 03:15:07;;;;;;;0.20;0.20;;;12.40;99.90;;;;;;5022187;28;20076;-80
2022/10/03 03:17:44;;;;;;;0.13;0.13;;;12.40;99.90;;;;;;5008612;28;20056;-79
2022/10/03 03:20:29;;;;;;;0.20;0.20;;;12.40;99.90;;;;;;5046754;28;20049;-80
2022/10/03 03:23:09;;;;;;;0.10;0.10;;;12.40;99.90;;;;;;5023161;28;20041;-79
2022/10/03 03:26:01;;;;;;;0.10;0.10;;;12.40;99.90;;;;;;5027991;28;20049;-80
2022/10/03 03:28:47;;;;;;;0.20;0.20;;;12.40;99.90;;;;;;5029554;28;20315;-80
2022/10/03 03:31:19;;;;;;;0.10;0.10;;;12.50;99.90;;;;;;5023396;28;20095;-79
2022/10/03 03:34:03;;;;;;;0.20;0.20;;;12.40;99.90;;;;;;5051994;28;20033;-79
2022/10/03 03:36:48;;;;;;;0.20;0.20;;;12.40;99.90;;;;;;5033733;28;20048;-79
2022/10/03 03:39:40;;;;;;;0.20;0.20;;;12.40;99.90;;;;;;5049307;28;20041;-80
2022/10/03 03:42:34;;;;;;;0.20;0.20;;;12.40;99.90;;;;;;4995797;28;20428;-81
2022/10/03 03:45:13;;;;;;;0.20;0.20;;;12.40;99.90;;;;;;5028306;28;20552;-80
2022/10/03 03:48:04;;;;;;;0.20;0.20;;;12.50;99.90;;;;;;5048966;28;20559;-81
2022/10/03 03:50:51;;;;;;;0.10;0.10;;;12.50;99.90;;;;;;5051723;28;20767;-80
2022/10/03 03:53:38;;;;;;;0.20;0.20;;;12.40;99.90;;;;;;5033297;28;20499;-81
2022/10/03 03:56:31;;;;;;;0.20;0.20;;;12.40;99.90;;;;;;5050798;28;21268;-81
2022/10/03 03:59:34;;;;;;;0.20;0.20;;;12.50;99.90;;;;;;5046156;28;20045;-81
2022/10/03 04:02:06;;;;;;;0.20;0.20;;;12.50;99.90;;;;;;5048480;28;20045;-81
2022/10/03 04:04:50;;;;;;;0.20;0.20;;;12.40;99.90;;;;;;5027636;28;20060;-81
2022/10/03 04:07:25;;;;;;;0.20;0.20;;;12.50;99.90;;;;;;5051844;28;20049;-81
2022/10/03 04:10:15;;;;;;;0.10;0.10;;;12.50;99.90;;;;;;5048815;28;20076;-81
2022/10/03 04:13:01;;;;;;;0.17;0.17;;;12.50;99.90;;;;;;5032827;28;20051;-81
2022/10/03 04:16:09;;;;;;;0.15;0.15;;;12.50;99.90;;;;;;5049605;28;20060;-81
2022/10/03 04:18:56;;;;;;;0.20;0.20;;;12.40;99.90;;;;;;5032434;28;20128;-81
2022/10/03 04:21:41;;;;;;;0.20;0.20;;;12.50;99.90;;;;;;5028057;28;20041;-81
2022/10/03 04:24:39;;;;;;;0.10;0.10;;;12.50;99.90;;;;;;5047285;28;20490;-80
2022/10/03 04:27:36;;;;;;;0.20;0.20;;;12.50;99.90;;;;;;5034530;28;20053;-81
2022/10/03 04:30:17;;;;;;;0.20;0.20;;;12.40;99.90;;;;;;5047381;28;20060;-80
2022/10/03 04:32:58;;;;;;;0.20;0.20;;;12.40;99.90;;;;;;5047070;28;20044;-80
2022/10/03 04:35:28;;;;;;;0.20;0.20;;;12.40;99.90;;;;;;5047984;28;20055;-80
2022/10/03 04:38:15;;;;;;;0.17;0.17;;;12.40;99.90;;;;;;5050250;28;20037;-81
2022/10/03 04:41:48;;;;;;;0.10;0.10;;;12.40;99.90;;;;;;5063960;28;20033;-80
2022/10/03 04:44:30;;;;;;;0.15;0.15;;;12.40;99.90;;;;;;5025374;28;20084;-81
2022/10/03 04:47:08;;;;;;;0.20;0.20;;;12.40;99.90;;;;;;5051477;28;20069;-81
2022/10/03 04:49:47;;;;;;;0.20;0.20;;;12.40;99.90;;;;;;5049386;28;20041;-81
2022/10/03 04:52:32;;;;;;;0.20;0.20;;;12.40;99.90;;;;;;5048604;28;20041;-81
2022/10/03 04:55:38;;;;;;;0.10;0.10;;;12.40;99.90;;;;;;5049268;28;20132;-80
2022/10/03 04:58:09;;;;;;;0.10;0.10;;;12.30;99.90;;;;;;5044304;28;20488;-80
2022/10/03 05:00:37;;;;;;;;;;;12.30;99.90;;;;;;5039992;28;20527;-80
2022/10/03 05:03:12;;;;;;;0.17;0.17;;;12.30;99.90;;;;;;5035985;28;19924;-80
2022/10/03 05:05:59;;;;;;;0.20;0.20;;;12.30;99.90;;;;;;5045291;28;20049;-80
2022/10/03 05:08:58;;;;;;;0.10;0.10;;;12.20;99.90;;;;;;5046742;28;20231;-80
2022/10/03 05:11:38;;;;;;;0.10;0.10;;;12.20;99.90;;;;;;5046008;28;20060;-80
2022/10/03 05:14:22;;;;;;;0.10;0.10;;;12.10;99.90;;;;;;5047723;28;20065;-81
2022/10/03 05:17:03;;;;;;;0.20;0.20;;;12.10;99.90;;;;;;5050123;28;20122;-80
2022/10/03 05:19:46;;;;;;;0.20;0.20;;;12.10;99.90;;;;;;5045498;28;20048;-80
2022/10/03 05:22:36;;;;;;;0.20;0.20;;;12.00;99.90;;;;;;5048328;28;20068;-80
2022/10/03 05:25:52;;;;;;;0.10;0.10;;;12.00;99.90;;;;;;5037521;28;20049;-78
2022/10/03 05:28:32;;;;;;;0.20;0.20;;;12.00;99.90;;;;;;4999600;28;20045;-79
2022/10/03 05:31:06;;;;;;;0.10;0.10;;;11.90;99.90;;;;;;5044730;28;20135;-79
2022/10/03 05:33:41;;;;;;;0.20;0.20;;;11.90;99.90;;;;;;5033805;28;20041;-80
2022/10/03 05:36:22;;;;;;;0.10;0.10;;;11.80;99.90;;;;;;5053467;28;20079;-80
2022/10/03 05:39:19;;;;;;;0.17;0.17;;;11.90;99.90;;;;;;5042616;28;20476;-79
2022/10/03 05:42:00;;;;;;;0.20;0.20;;;11.80;99.90;;;;;;5048462;28;20048;-80
2022/10/03 05:45:00;;;;;;;0.10;0.10;;;11.80;99.90;;;;;;5050704;28;20121;-80
2022/10/03 05:47:48;;;;;;;0.20;0.20;;;11.80;99.90;;;;;;5046672;28;20048;-79
2022/10/03 05:50:27;;;;;;;0.10;0.10;;;11.80;99.90;;;;;;5045237;28;20073;-80
2022/10/03 05:53:14;;;;;;;0.10;0.10;;;11.70;99.90;;;;;;5046782;28;20045;-79
2022/10/03 05:56:06;;;;;;;0.20;0.20;;;11.70;99.90;;;;;;5049710;28;20621;-80
2022/10/03 05:58:37;;;;;;;0.20;0.20;;;11.70;99.90;;;;;;5048481;28;20041;-80
2022/10/03 06:01:25;;;;;;;0.20;0.20;;;11.70;99.90;;;;;;5050592;28;20045;-80
2022/10/03 06:04:11;;;;;;;0.20;0.20;;;11.70;99.90;;;;;;5046615;28;20061;-80
2022/10/03 06:07:16;;;;;;;0.17;0.17;;;11.60;99.90;;;;;;5050484;28;20420;-80
2022/10/03 06:10:01;;;;;;;0.20;0.20;;;11.70;99.90;;;;;;5046177;28;20528;-80
2022/10/03 06:12:39;;;;;;;0.20;0.20;;;11.60;99.90;;;;;;5031219;28;20041;-79
2022/10/03 06:15:53;;;;;;;0.10;0.10;;;11.60;99.90;;;;;;5031055;28;20049;-80
2022/10/03 06:18:48;;;;;;;0.20;0.20;;;11.60;99.90;;;;;;4956052;28;20047;-80
2022/10/03 06:21:23;;;;;;;0.20;0.20;;;11.60;99.90;;;;;;5042370;28;20071;-78
2022/10/03 06:24:10;;;;;;;0.10;0.10;;;11.60;99.90;;;;;;5067615;28;20057;-80
2022/10/03 06:27:11;;;;;;;0.17;0.17;;;11.60;99.90;;;;;;5069468;28;20052;-79
2022/10/03 06:30:10;;;;;;;0.20;0.20;;;11.50;99.90;;;;;;5054950;28;20484;-79
2022/10/03 06:33:08;;;;;;;0.20;0.20;;;11.50;99.90;;;;;;5065653;28;20072;-79
2022/10/03 06:35:52;;;;;;;0.20;0.20;;;11.60;99.90;;;;;;5067884;28;20078;-79
2022/10/03 06:39:00;;;;;;;0.20;0.20;;;11.60;99.90;;;;;;5032678;28;20060;-79
2022/10/03 06:41:47;;;;;;;0.20;0.20;;;11.60;99.90;;;;;;5037382;28;20396;-79
2022/10/03 06:44:18;;;;;;;0.10;0.10;;;11.60;99.90;;;;;;5046179;28;20054;-81
2022/10/03 06:47:02;;;;;;;0.10;0.10;;;11.60;99.90;;;;;;5057949;28;20052;-80
2022/10/03 06:49:35;;;;;;;0.20;0.20;;;11.70;99.90;;;;;;5041746;28;20400;-80
2022/10/03 06:52:35;;;;;;;0.20;0.20;;;11.70;99.90;;;;;;5046859;28;20049;-79
2022/10/03 06:55:31;;;;;;;0.20;0.20;;;11.70;99.90;;;;;;5062263;28;20064;-80
2022/10/03 06:58:26;;;;;;;0.20;0.20;;;11.70;99.90;;;;;;5063667;28;20143;-82
2022/10/03 07:01:01;;;;;;;0.20;0.20;;;11.80;99.90;;;;;;5067767;28;20260;-81
2022/10/03 07:03:30;;;;;;;0.20;0.20;;;11.80;99.90;;;;;;5056545;28;20040;-81
2022/10/03 07:06:11;;;;;;;0.20;0.20;;;11.80;99.90;;;;;;5063641;28;20048;-80
2022/10/03 07:08:56;;;;;;;0.20;0.20;;;11.90;99.90;;;;;;5065138;28;20052;-80
2022/10/03 07:12:05;;;;;;;0.20;0.20;;;11.90;99.90;;;;;;5055888;28;20057;-80
2022/10/03 07:14:37;;;;;;;0.20;0.20;;;12.00;99.90;;;;;;5062808;28;20045;-80
2022/10/03 07:17:24;;;;;;;0.10;0.10;;;12.00;99.90;;;;;;5044108;28;20105;-79
2022/10/03 07:19:51;;;;;;;0.10;0.10;;;12.10;99.90;;;;;;5045207;28;20044;-80
2022/10/03 07:22:33;;;;;;;0.20;0.20;;;12.10;99.90;;;;;;5050427;28;20049;-77
2022/10/03 07:25:08;;;;;;;0.20;0.20;;;12.10;99.90;;;;;;5044406;28;20446;-77
2022/10/03 07:28:08;;;;;;;0.20;0.20;;;12.20;99.90;;;;;;5068348;28;20080;-78
2022/10/03 07:30:47;;;;;;;0.10;0.10;;;12.20;99.90;;;;;;5041092;28;20040;-78
2022/10/03 07:33:33;;;;;;;0.10;0.10;;;12.30;99.90;;;;;;5040203;28;20045;-78
2022/10/03 07:39:32;;;;;;;0.13;0.13;;;12.40;99.90;;;;;;5061984;28;20045;-78
2022/10/03 07:42:20;;;;;;;0.20;0.20;;;12.50;99.90;;;;;;5034836;28;20491;-78
2022/10/03 07:45:10;;;;;;;0.10;0.10;;;12.50;99.90;;;;;;5047851;28;20072;-78
2022/10/03 07:47:56;;;;;;;0.17;0.17;;;12.60;99.90;;;;;;5060813;28;20055;-77
2022/10/03 07:51:04;;;;;;;0.20;0.20;;;12.60;99.90;;;;;;5049979;28;20048;-78
2022/10/03 07:53:57;;;;;;;0.20;0.20;;;12.70;99.90;;;;;;5033142;28;20558;-78
2022/10/03 07:56:48;;;;;;;0.20;0.20;;;12.80;99.90;;;;;;5047876;28;20437;-78
2022/10/03 07:59:42;;;;;;;0.20;0.20;;;12.80;99.90;;;;;;5048086;28;20041;-77
2022/10/03 08:02:25;;;;;;;0.10;0.10;;;12.90;99.90;;;;;;5038539;28;20052;-77
2022/10/03 08:04:54;;;;;;;0.20;0.20;;;13.00;99.90;;;;;;5050956;28;20435;-78
2022/10/03 08:08:02;;;;;;;0.20;0.20;;;13.00;99.90;;;;;;5068974;28;20032;-77
2022/10/03 08:10:55;;;;;;;0.10;0.10;;;13.10;99.90;;;;;;5072768;28;20138;-78
2022/10/03 08:13:41;;;;;;;0.20;0.20;;;13.10;99.90;;;;;;5045023;28;20067;-78
2022/10/03 08:16:30;;;;;;;0.20;0.20;;;13.20;99.90;;;;;;5049665;28;20496;-78
2022/10/03 08:19:27;;;;;;;0.20;0.20;;;13.60;99.90;;;;;;5064932;28;20060;-78
2022/10/03 08:22:12;;;;;;;0.10;0.10;;;13.30;99.90;;;;;;5051496;28;20076;-78
2022/10/03 08:25:13;;;;;;;0.20;0.20;;;13.40;99.90;;;;;;5046955;28;20070;-77
2022/10/03 08:28:02;;;;;;;0.20;0.20;;;13.40;99.90;;;;;;5065281;28;20139;-78
2022/10/03 08:30:40;;;;;;;0.15;0.15;;;13.50;99.90;;;;;;5051411;28;20136;-77
2022/10/03 08:33:24;;;;;;;0.10;0.10;;;13.60;99.90;;;;;;5064613;28;20148;-78
2022/10/03 08:36:14;;;;;;;0.10;0.10;;;13.60;99.90;;;;;;5049272;28;20055;-78
2022/10/03 08:39:31;;;;;;;0.20;0.20;;;13.70;99.90;;;;;;5048756;28;20044;-78
2022/10/03 08:42:13;;;;;;;0.10;0.10;;;13.60;99.90;;;;;;5012116;28;20063;-78
2022/10/03 08:45:11;;;;;;;0.20;0.20;;;13.80;99.90;;;;;;5052956;28;20052;-78
2022/10/03 08:48:07;;;;;;;0.20;0.20;;;13.90;99.90;;;;;;5045413;28;20053;-78
2022/10/03 08:50:35;;;;;;;0.20;0.20;;;14.00;99.90;;;;;;5038295;28;20438;-78
2022/10/03 08:53:22;;;;;;;0.20;0.20;;;14.00;99.90;;;;;;5053856;28;20041;-78
2022/10/03 08:56:06;;;;;;;0.20;0.20;;;14.10;99.90;;;;;;5048188;28;20041;-78
2022/10/03 08:58:53;;;;;;;0.10;0.10;;;14.20;99.90;;;;;;5065167;28;20116;-78
2022/10/03 09:01:40;;;;;;;0.13;0.13;;;14.20;99.90;;;;;;5041795;28;20052;-78
2022/10/03 09:04:30;;;;;;;0.10;0.10;;;14.30;99.90;;;;;;5044457;28;20080;-78
2022/10/03 09:06:59;;;;;;;0.20;0.20;;;14.40;99.90;;;;;;5067052;28;20433;-78
2022/10/03 09:09:43;;;;;;;0.20;0.20;;;14.50;99.90;;;;;;5053513;28;20448;-79
2022/10/03 09:12:27;;;;;;;0.10;0.10;;;14.50;99.90;;;;;;5052952;28;20051;-79
2022/10/03 09:15:14;;;;;;;0.20;0.20;;;14.60;99.90;;;;;;5073320;28;20067;-79
2022/10/03 09:18:19;;;;;;;0.20;0.20;;;14.60;99.90;;;;;;5047230;28;20047;-79
2022/10/03 09:21:15;;;;;;;0.20;0.20;;;14.70;99.90;;;;;;5053235;28;20075;-79
2022/10/03 09:24:09;;;;;;;0.20;0.20;;;14.80;99.90;;;;;;5033475;28;20045;-79
2022/10/03 09:26:59;;;;;;;0.20;0.20;;;14.80;99.90;;;;;;5033624;28;20353;-79
2022/10/03 09:29:46;;;;;;;0.20;0.20;;;14.90;99.90;;;;;;5046381;28;20080;-78
2022/10/03 09:32:59;;;;;;;0.20;0.20;;;15.00;99.90;;;;;;5065093;28;20511;-78
2022/10/03 09:35:38;;;;;;;0.20;0.20;;;15.00;99.90;;;;;;5000780;28;20499;-78
2022/10/03 09:38:23;;;;;;;0.20;0.20;;;15.00;99.90;;;;;;5048489;28;20573;-78
2022/10/03 09:41:16;;;;;;;0.20;0.20;;;15.10;99.90;;;;;;5070912;28;20040;-78
2022/10/03 09:43:48;;;;;;;0.20;0.20;;;15.20;99.90;;;;;;5052775;28;20044;-78
2022/10/03 09:46:22;;;;;;;;;;;15.30;99.90;;;;;;5054281;28;20580;-78
2022/10/03 09:49:45;;;;;;;0.10;0.10;;;15.30;99.90;;;;;;5081779;28;19942;-76
2022/10/03 09:52:31;;;;;;;0.10;0.10;;;15.40;99.90;;;;;;4998285;28;20050;-77
2022/10/03 09:54:58;;;;;;;0.10;0.10;;;15.30;99.90;;;;;;4967172;28;20050;-78
2022/10/03 09:57:37;;;;;;;0.20;0.20;;;15.50;99.90;;;;;;5031314;28;20098;-78
2022/10/03 10:00:21;;;;;;;0.10;0.10;;;15.50;99.90;;;;;;5052819;28;20056;-78
2022/10/03 10:03:33;;;;;;;0.20;0.20;;;15.60;99.90;;;;;;5051169;28;20484;-77
2022/10/03 10:06:15;;;;;;;0.10;0.10;;;15.60;99.90;;;;;;4987450;28;20496;-79
2022/10/03 10:09:03;;;;;;;0.20;0.20;;;15.60;99.90;;;;;;5068927;28;20045;-78
2022/10/03 10:11:59;;;;;;;0.20;0.20;;;15.70;99.90;;;;;;5052571;28;20121;-78
2022/10/03 10:14:40;;;;;;;0.20;0.20;;;15.70;99.90;;;;;;5069505;28;20047;-77
2022/10/03 10:17:41;;;;;;;0.20;0.20;;;15.90;99.90;;;;;;5069087;28;20491;-77
2022/10/03 10:20:23;;;;;;;0.13;0.13;;;15.90;99.90;;;;;;5038629;28;20060;-77
2022/10/03 10:23:04;;;;;;;0.10;0.10;;;16.00;99.90;;;;;;5066798;28;20068;-77
2022/10/03 10:25:53;;;;;;;0.10;0.10;;;16.00;99.90;;;;;;5052539;28;20048;-77
2022/10/03 10:28:47;;;;;;;0.20;0.20;;;16.10;99.90;;;;;;5067257;28;20053;-77
2022/10/03 10:31:45;;;;;;;0.17;0.17;;;16.10;99.90;;;;;;5066408;28;20102;-77
2022/10/03 10:34:26;;;;;;;0.10;0.10;;;16.20;99.90;;;;;;5046597;28;20093;-78
2022/10/03 10:37:31;;;;;;;0.20;0.20;;;16.30;99.90;;;;;;5066978;28;20473;-77
2022/10/03 10:40:29;;;;;;;0.20;0.20;;;16.40;99.90;;;;;;5062558;28;20299;-77
2022/10/03 10:43:27;;;;;;;0.20;0.20;;;16.50;99.90;;;;;;5026449;28;20056;-78
2022/10/03 10:46:17;;;;;;;0.20;0.20;;;16.60;99.90;;;;;;5043050;28;20080;-77
2022/10/03 10:49:16;;;;;;;0.10;0.10;;;16.70;99.90;;;;;;5064775;28;20048;-78
2022/10/03 10:52:14;;;;;;;0.10;0.10;;;16.70;99.90;;;;;;5066802;28;20101;-77
2022/10/03 10:55:07;;;;;;;0.10;0.10;;;16.90;99.90;;;;;;5049574;28;20132;-77
2022/10/03 10:58:09;;;;;;;0.20;0.20;;;17.00;99.90;;;;;;5037577;28;20056;-77
2022/10/03 11:01:12;;;;;;;0.20;0.20;;;17.00;99.90;;;;;;5065314;28;20500;-78
2022/10/03 11:03:44;;;;;;;0.20;0.20;;;17.10;99.90;;;;;;5047510;28;20053;-78
2022/10/03 11:06:41;;;;;;;0.20;0.20;;;17.20;99.90;;;;;;5032962;28;20057;-78
2022/10/03 11:09:24;;;;;;;0.20;0.20;;;17.20;99.90;;;;;;5049803;28;20044;-78
2022/10/03 11:12:15;;;;;;;1.95;0.57;;;17.30;99.90;;;;;;5037237;28;20377;-78
2022/10/03 11:15:14;;;;;;;0.20;0.20;;;17.30;99.90;;;;;;5068499;28;20159;-77
2022/10/03 11:18:09;;;;;;;0.20;0.20;;;17.40;99.90;;;;;;5069022;28;20044;-78
2022/10/03 11:20:34;;;;;;;0.20;0.20;;;17.50;99.90;;;;;;5048516;28;20053;-78
2022/10/03 11:23:37;;;;;;;0.20;0.20;;;17.50;99.90;;;;;;5064628;28;20057;-78
2022/10/03 11:26:21;;;;;;;0.20;0.20;;;17.60;99.90;;;;;;5049043;28;20080;-78
2022/10/03 11:29:25;;;;;;;0.20;0.20;;;17.70;99.90;;;;;;5049602;28;20056;-77
2022/10/03 11:32:28;;;;;;;0.20;0.20;;;17.80;99.90;;;;;;5066105;28;20025;-77
2022/10/03 11:35:28;;;;;;;0.20;0.20;;;17.90;99.90;;;;;;5060892;28;20041;-76
2022/10/03 11:38:29;;;;;;;0.20;0.20;;;17.90;99.90;;;;;;5046762;28;20416;-78
2022/10/03 11:41:28;;;;;;;0.20;0.20;;;17.90;99.90;;;;;;5044179;28;20068;-78
2022/10/03 11:44:21;;;;;;;0.20;0.20;;;17.90;99.90;;;;;;5046795;28;20120;-77
2022/10/03 11:47:27;;;;;;;0.20;0.20;;;18.00;99.90;;;;;;5047493;28;20052;-78
2022/10/03 11:50:04;;;;;;;0.20;0.20;;;18.00;99.90;;;;;;5044922;28;20060;-77
2022/10/03 11:53:06;;;;;;;0.10;0.10;;;18.10;99.90;;;;;;5050643;28;20060;-77
2022/10/03 11:55:47;;;;;;;0.20;0.20;;;18.10;99.90;;;;;;5052122;28;20049;-78
2022/10/03 11:58:37;;;;;;;0.20;0.20;;;18.20;99.90;;;;;;5047772;28;20563;-77
2022/10/03 12:01:09;;;;;;;0.20;0.20;;;18.20;99.90;;;;;;5039373;28;20496;-77
2022/10/03 12:03:56;;;;;;;0.20;0.20;;;18.30;99.90;;;;;;5052447;28;20049;-78
2022/10/03 12:10:05;;;;;;;0.20;0.20;;;18.40;99.90;;;;;;5048549;28;20082;-76
2022/10/03 12:12:40;;;;;;;0.20;0.20;;;18.50;99.90;;;;;;5049095;28;20599;-78
2022/10/03 12:15:30;;;;;;;0.20;0.20;;;18.50;99.90;;;;;;5033370;28;20049;-78
2022/10/03 12:18:20;;;;;;;0.20;0.20;;;18.50;99.90;;;;;;5042186;28;20052;-78
2022/10/03 12:20:45;;;;;;;0.20;0.20;;;18.50;99.90;;;;;;5051383;28;20079;-78
2022/10/03 12:23:40;;;;;;;0.17;0.17;;;18.60;99.90;;;;;;5051580;28;20052;-78
2022/10/03 12:26:13;;;;;;;0.20;0.20;;;18.60;99.90;;;;;;5051305;28;20105;-78
2022/10/03 12:28:45;;;;;;;0.20;0.20;;;18.70;99.90;;;;;;5051382;28;20158;-77
2022/10/03 12:31:25;;;;;;;0.20;0.20;;;18.70;99.90;;;;;;5052980;28;20053;-78
2022/10/03 12:33:53;;;;;;;0.30;0.30;;;18.80;99.90;;;;;;5048121;28;20504;-77
2022/10/03 12:36:32;;;;;;;0.10;0.10;;;18.70;99.90;;;;;;5036838;28;20571;-76
2022/10/03 12:39:13;;;;;;;0.20;0.20;;;18.80;99.90;;;;;;5031048;28;20084;-78
2022/10/03 12:41:44;;;;;;;0.20;0.20;;;18.70;99.90;;;;;;5038192;28;20524;-76
2022/10/03 12:44:48;;;;;;;0.20;0.20;;;18.70;99.90;;;;;;5051095;28;20057;-76
2022/10/03 12:48:04;;;;;;;0.20;0.20;;;18.80;99.90;;;;;;5051025;28;20082;-76
2022/10/03 12:50:42;;;;;;;0.20;0.20;;;18.80;99.90;;;;;;5004117;28;20558;-76
2022/10/03 12:53:24;;;;;;;0.20;0.20;;;18.80;99.90;;;;;;5031650;28;20397;-76
2022/10/03 12:56:17;;;;;;;0.20;0.20;;;19.00;99.90;;;;;;5032549;28;20042;-77
2022/10/03 12:58:48;;;;;;;0.20;0.20;;;19.20;99.90;;;;;;5051645;28;20127;-77
2022/10/03 13:01:49;;;;;;;0.20;0.20;;;19.30;99.90;;;;;;5050012;28;20041;-77
2022/10/03 13:04:18;;;;;;;0.20;0.20;;;19.40;99.90;;;;;;5046644;28;20045;-77
2022/10/03 13:07:22;;;;;;;0.20;0.20;;;19.50;99.90;;;;;;5031891;28;20054;-77
2022/10/03 13:10:12;;;;;;;0.20;0.20;;;19.50;99.90;;;;;;5040231;28;20111;-77
2022/10/03 13:13:02;;;;;;;0.20;0.20;;;19.40;99.90;;;;;;5041644;28;20049;-77
2022/10/03 13:15:52;;;;;;;0.20;0.20;;;19.30;99.90;;;;;;5054674;28;20053;-77
2022/10/03 13:18:35;;;;;;;0.20;0.20;;;19.20;99.90;;;;;;5045813;28;20057;-77
2022/10/03 13:21:08;;;;;;;0.20;0.20;;;19.10;99.90;;;;;;5045280;28;20077;-77
2022/10/03 13:23:59;;;;;;;0.10;0.10;;;19.00;99.90;;;;;;5049474;28;20053;-78
2022/10/03 13:26:31;;;;;;;0.20;0.20;;;18.90;99.90;;;;;;5046999;28;20515;-78
2022/10/03 13:29:18;;;;;;;0.20;0.20;;;19.00;99.90;;;;;;5047818;28;20381;-78
2022/10/03 13:32:05;;;;;;;0.20;0.20;;;19.10;99.90;;;;;;5054155;28;20067;-78
2022/10/03 13:34:45;;;;;;;0.20;0.20;;;19.20;99.90;;;;;;5052599;28;20493;-78
2022/10/03 13:37:32;;;;;;;0.20;0.20;;;19.10;99.90;;;;;;5045512;28;20044;-78
2022/10/03 13:40:14;;;;;;;0.20;0.20;;;19.00;99.90;;;;;;5066211;28;20403;-76
2022/10/03 13:42:52;;;;;;;0.20;0.20;;;18.90;99.90;;;;;;5071530;28;20090;-78
2022/10/03 13:45:24;;;;;;;0.20;0.20;;;18.80;99.90;;;;;;5045161;28;20052;-78
2022/10/03 13:48:16;;;;;;;0.20;0.20;;;18.70;99.90;;;;;;5067533;28;20054;-77
2022/10/03 13:51:00;;;;;;;0.20;0.20;;;18.60;99.90;;;;;;5042694;28;20044;-78
2022/10/03 13:53:48;;;;;;;0.10;0.10;;;18.80;99.90;;;;;;5047507;28;20185;-78
2022/10/03 13:56:35;;;;;;;0.13;0.13;;;19.00;99.90;;;;;;5049786;28;20102;-77
2022/10/03 13:59:42;;;;;;;0.20;0.20;;;19.00;99.90;;;;;;5045176;28;20037;-78
2022/10/03 14:02:13;;;;;;;0.20;0.20;;;19.00;99.90;;;;;;5069337;28;20123;-77
2022/10/03 14:05:25;;;;;;;0.20;0.20;;;18.80;99.90;;;;;;5046080;28;20594;-77
2022/10/03 14:08:08;;;;;;;0.20;0.20;;;18.70;99.90;;;;;;5047675;28;20045;-77
2022/10/03 14:11:30;;;;;;;0.20;0.20;;;18.60;99.90;;;;;;5069575;28;20040;-78
2022/10/03 14:14:24;;;;;;;0.20;0.20;;;18.50;99.90;;;;;;5036842;28;20072;-77
2022/10/03 14:17:18;;;;;;;0.20;0.20;;;18.40;99.90;;;;;;5060401;28;20055;-77
2022/10/03 14:19:56;;;;;;;0.20;0.20;;;18.30;99.90;;;;;;5047814;28;20047;-77
2022/10/03 14:22:25;;;;;;;0.20;0.20;;;18.30;99.90;;;;;;5069846;28;20044;-77
2022/10/03 14:25:15;;;;;;;0.20;0.20;;;18.20;99.90;;;;;;5067914;28;20131;-78
2022/10/03 14:27:54;;;;;;;0.20;0.20;;;18.10;99.90;;;;;;5067953;28;20049;-77
2022/10/03 14:30:23;;;;;;;0.20;0.20;;;18.00;99.90;;;;;;5052025;28;20461;-77
2022/10/03 14:33:16;;;;;;;0.20;0.20;;;18.00;99.90;;;;;;5043427;28;20091;-76
2022/10/03 14:36:26;;;;;;;0.20;0.20;;;17.90;99.90;;;;;;5046902;28;20413;-77
2022/10/03 14:39:22;;;;;;;0.17;0.17;;;17.90;99.90;;;;;;4968559;28;20053;-77
2022/10/03 14:41:54;;;;;;;0.20;0.20;;;17.90;99.90;;;;;;5046142;28;20056;-76